Wetterdaten: Woche 12.07.04 - 18.07.04 (KW29)
Datum Zeit Temperatur Luftfeuchte Luftdruck Regenmenge Wind Richtung Taupunkt Windchill
12.07.2004 00:00 12.4 C 88 % 1015.2 hPa 0.0 l/m 0.2 km/h (0 Bft) N 10.5 C 12.4 C
12.07.2004 01:00 12.0 C 90 % 1015.1 hPa 0.0 l/m 1.0 km/h (0 Bft) O-SO 10.3 C 12.0 C
12.07.2004 02:00 11.9 C 91 % 1014.3 hPa 0.0 l/m 1.6 km/h (1 Bft) O-SO 10.5 C 11.9 C
12.07.2004 03:00 12.0 C 89 % 1014.3 hPa 0.0 l/m 0.3 km/h (0 Bft) SO 10.3 C 12.0 C
12.07.2004 04:00 11.8 C 89 % 1013.8 hPa 0.3 l/m 0.6 km/h (0 Bft) SO 10.1 C 11.8 C
12.07.2004 05:00 11.1 C 96 % 1013.3 hPa 0.3 l/m 4.4 km/h (1 Bft) SO 10.4 C 11.1 C
12.07.2004 06:00 11.1 C 98 % 1013.3 hPa 0.6 l/m 1.3 km/h (1 Bft) SO 10.9 C 11.1 C
12.07.2004 07:00 11.6 C 99 % 1013.5 hPa 0.0 l/m 0.3 km/h (0 Bft) SO 11.4 C 11.6 C
12.07.2004 08:00 11.9 C 97 % 1014.3 hPa 0.9 l/m 4.0 km/h (1 Bft) NW 11.4 C 11.9 C
12.07.2004 09:00 11.8 C 92 % 1014.3 hPa 0.0 l/m 14.1 km/h (3 Bft) NW 10.6 C 11.8 C
12.07.2004 10:00 13.0 C 84 % 1014.5 hPa 0.0 l/m 8.8 km/h (2 Bft) NW 10.4 C 13.0 C
12.07.2004 11:00 14.7 C 72 % 1014.8 hPa 0.0 l/m 14.6 km/h (3 Bft) NW 9.6 C 14.7 C
12.07.2004 12:00 14.9 C 65 % 1014.1 hPa 0.0 l/m 18.8 km/h (3 Bft) NW 8.4 C 14.9 C
12.07.2004 13:00 15.3 C 63 % 1013.8 hPa 0.0 l/m 17.0 km/h (3 Bft) NW 8.3 C 15.3 C
12.07.2004 14:00 17.5 C 53 % 1013.5 hPa 0.0 l/m 15.8 km/h (3 Bft) NW 7.8 C 17.5 C
12.07.2004 15:00 17.2 C 55 % 1013.6 hPa 0.0 l/m 16.9 km/h (3 Bft) NW 7.9 C 17.2 C
12.07.2004 16:00 17.3 C 49 % 1013.6 hPa 0.0 l/m 16.1 km/h (3 Bft) NW 6.5 C 17.3 C
12.07.2004 17:00 15.7 C 76 % 1013.8 hPa 0.3 l/m 8.7 km/h (2 Bft) NW 11.5 C 15.7 C
12.07.2004 18:00 18.1 C 59 % 1013.5 hPa 0.0 l/m 15.7 km/h (3 Bft) NW 9.9 C 18.1 C
12.07.2004 19:00 16.2 C 57 % 1013.9 hPa 0.3 l/m 13.7 km/h (3 Bft) NW 7.7 C 16.2 C
12.07.2004 20:00 14.5 C 81 % 1015.0 hPa 0.0 l/m 1.8 km/h (1 Bft) W-NW 11.3 C 14.5 C
12.07.2004 21:00 12.8 C 89 % 1015.6 hPa 0.0 l/m 1.1 km/h (0 Bft) SO 11.0 C 12.8 C
12.07.2004 22:00 12.2 C 95 % 1016.3 hPa 0.0 l/m 2.9 km/h (1 Bft) O-SO 11.4 C 12.2 C
12.07.2004 23:00 12.2 C 97 % 1016.3 hPa 0.0 l/m 2.0 km/h (1 Bft) O-SO 11.8 C 12.2 C
13.07.2004 00:00 11.9 C 98 % 1016.3 hPa 0.0 l/m 3.0 km/h (1 Bft) SO 11.6 C 11.9 C
13.07.2004 01:00 11.9 C 98 % 1016.4 hPa 0.0 l/m 0.4 km/h (0 Bft) O-SO 11.6 C 11.9 C
13.07.2004 02:00 12.1 C 95 % 1016.3 hPa 0.3 l/m 0.8 km/h (0 Bft) NO 11.2 C 12.1 C
13.07.2004 03:00 11.9 C 96 % 1016.3 hPa 0.0 l/m 2.0 km/h (1 Bft) W-NW 11.2 C 11.9 C
13.07.2004 04:00 12.1 C 94 % 1016.3 hPa 0.0 l/m 2.4 km/h (1 Bft) W-NW 11.2 C 12.1 C
13.07.2004 05:00 12.2 C 94 % 1016.3 hPa 0.0 l/m 0.0 km/h (0 Bft) N 11.2 C 12.2 C
13.07.2004 06:00 12.5 C 91 % 1017.0 hPa 0.0 l/m 2.6 km/h (1 Bft) NW 11.0 C 12.5 C
13.07.2004 07:00 12.8 C 86 % 1017.3 hPa 0.0 l/m 7.0 km/h (2 Bft) NW 10.5 C 12.8 C
13.07.2004 08:00 13.1 C 80 % 1017.2 hPa 0.0 l/m 11.2 km/h (2 Bft) W-NW 9.8 C 13.1 C
13.07.2004 09:00 13.3 C 80 % 1018.0 hPa 0.0 l/m 11.8 km/h (2 Bft) NW 9.9 C 13.3 C
13.07.2004 10:00 13.6 C 81 % 1018.2 hPa 0.0 l/m 9.2 km/h (2 Bft) NW 10.4 C 13.6 C
13.07.2004 11:00 14.2 C 77 % 1018.1 hPa 0.0 l/m 9.8 km/h (2 Bft) NW 10.3 C 14.2 C
13.07.2004 12:00 15.7 C 72 % 1017.9 hPa 0.0 l/m 7.1 km/h (2 Bft) NW 10.6 C 15.7 C
13.07.2004 13:00 17.4 C 59 % 1017.7 hPa 0.0 l/m 13.9 km/h (3 Bft) W-NW 9.2 C 17.4 C
13.07.2004 14:00 17.1 C 56 % 1017.7 hPa 0.3 l/m 13.1 km/h (3 Bft) NW 8.3 C 17.1 C
13.07.2004 15:00 19.8 C 48 % 1017.4 hPa 0.0 l/m 9.8 km/h (2 Bft) NW 8.4 C 19.8 C
13.07.2004 16:00 20.6 C 53 % 1017.3 hPa 0.0 l/m 12.1 km/h (2 Bft) W-NW 10.5 C 20.6 C
13.07.2004 17:00 17.1 C 58 % 1017.7 hPa 0.0 l/m 16.2 km/h (3 Bft) NW 8.8 C 17.1 C
13.07.2004 18:00 17.4 C 57 % 1017.7 hPa 0.0 l/m 1.7 km/h (1 Bft) W-NW 8.8 C 17.4 C
13.07.2004 19:00 17.9 C 58 % 1017.6 hPa 0.0 l/m 11.3 km/h (2 Bft) NW 9.4 C 17.9 C
13.07.2004 20:00 15.5 C 66 % 1018.9 hPa 0.0 l/m 4.1 km/h (1 Bft) NW 9.2 C 15.5 C
13.07.2004 21:00 14.6 C 75 % 1019.4 hPa 0.0 l/m 1.0 km/h (0 Bft) O-SO 10.2 C 14.6 C
13.07.2004 22:00 14.0 C 80 % 1020.2 hPa 0.0 l/m 0.0 km/h (0 Bft) N 10.6 C 14.0 C
13.07.2004 23:00 13.3 C 86 % 1020.7 hPa 0.0 l/m 0.6 km/h (0 Bft) O-SO 11.0 C 13.3 C
14.07.2004 00:00 12.5 C 91 % 1021.5 hPa 0.0 l/m 0.7 km/h (0 Bft) O-SO 11.0 C 12.5 C
14.07.2004 01:00 11.4 C 95 % 1021.6 hPa 0.0 l/m 0.5 km/h (0 Bft) O-SO 10.6 C 11.4 C
14.07.2004 02:00 10.7 C 99 % 1021.7 hPa 0.0 l/m 0.0 km/h (0 Bft) N 10.5 C 10.7 C
14.07.2004 03:00 11.6 C 100 % 1021.6 hPa 0.0 l/m 0.0 km/h (0 Bft) N 11.6 C 11.6 C
14.07.2004 04:00 11.6 C 97 % 1021.6 hPa 0.0 l/m 0.0 km/h (0 Bft) N 11.0 C 11.6 C
14.07.2004 05:00 11.7 C 92 % 1021.6 hPa 0.0 l/m 0.0 km/h (0 Bft) N 10.4 C 11.7 C
14.07.2004 06:00 12.0 C 91 % 1021.5 hPa 0.0 l/m 0.1 km/h (0 Bft) N 10.6 C 12.0 C
14.07.2004 07:00 12.2 C 88 % 1021.8 hPa 0.0 l/m 2.2 km/h (1 Bft) W-NW 10.3 C 12.2 C
14.07.2004 08:00 12.8 C 85 % 1022.4 hPa 0.0 l/m 1.5 km/h (1 Bft) O-SO 10.3 C 12.8 C
14.07.2004 09:00 14.5 C 78 % 1022.2 hPa 0.0 l/m 5.6 km/h (1 Bft) O-SO 10.6 C 14.5 C
14.07.2004 10:00 16.1 C 68 % 1022.0 hPa 0.0 l/m 3.9 km/h (1 Bft) O-SO 10.1 C 16.1 C
14.07.2004 11:00 17.7 C 60 % 1021.8 hPa 0.0 l/m 3.4 km/h (1 Bft) O-SO 9.8 C 17.7 C
14.07.2004 12:00 19.7 C 52 % 1021.6 hPa 0.0 l/m 6.5 km/h (2 Bft) O-SO 9.4 C 19.7 C
14.07.2004 13:00 20.8 C 48 % 1020.6 hPa 0.0 l/m 3.0 km/h (1 Bft) O-SO 9.2 C 20.8 C
14.07.2004 14:00 22.0 C 38 % 1020.2 hPa 0.0 l/m 10.9 km/h (2 Bft) NW 6.8 C 22.0 C
14.07.2004 15:00 23.1 C 34 % 1020.1 hPa 0.0 l/m 14.3 km/h (3 Bft) NW 6.2 C 23.1 C
14.07.2004 16:00 23.6 C 33 % 1019.0 hPa 0.0 l/m 20.4 km/h (4 Bft) NW 6.2 C 23.6 C
14.07.2004 17:00 23.4 C 35 % 1019.0 hPa 0.0 l/m 21.6 km/h (4 Bft) NW 7.0 C 23.4 C
14.07.2004 18:00 23.1 C 36 % 1019.0 hPa 0.0 l/m 11.9 km/h (2 Bft) NW 7.3 C 23.1 C
14.07.2004 19:00 22.0 C 43 % 1019.2 hPa 0.0 l/m 18.9 km/h (3 Bft) NW 9.0 C 22.0 C
14.07.2004 20:00 19.9 C 50 % 1019.4 hPa 0.0 l/m 16.8 km/h (3 Bft) NW 9.3 C 19.9 C
14.07.2004 21:00 19.0 C 53 % 1019.7 hPa 0.0 l/m 18.7 km/h (3 Bft) NW 9.1 C 19.0 C
14.07.2004 22:00 18.6 C 54 % 1020.6 hPa 0.0 l/m 13.5 km/h (3 Bft) NW 9.2 C 18.6 C
14.07.2004 23:00 18.1 C 56 % 1020.7 hPa 0.0 l/m 8.8 km/h (2 Bft) W-NW 9.3 C 18.1 C
15.07.2004 00:00 17.7 C 59 % 1020.8 hPa 0.0 l/m 2.0 km/h (1 Bft) W-NW 9.5 C 17.7 C
15.07.2004 01:00 16.9 C 65 % 1020.9 hPa 0.0 l/m 8.1 km/h (2 Bft) O-SO 10.2 C 16.9 C
15.07.2004 02:00 16.5 C 67 % 1020.4 hPa 0.0 l/m 2.0 km/h (1 Bft) O 10.4 C 16.5 C
15.07.2004 03:00 16.4 C 69 % 1020.1 hPa 0.0 l/m 4.2 km/h (1 Bft) O-SO 10.7 C 16.4 C
15.07.2004 04:00 16.1 C 71 % 1019.9 hPa 0.0 l/m 1.7 km/h (1 Bft) SO 10.9 C 16.1 C
15.07.2004 05:00 15.9 C 73 % 1020.0 hPa 0.0 l/m 0.0 km/h (0 Bft) N 11.1 C 15.9 C
15.07.2004 06:00 16.1 C 68 % 1019.9 hPa 0.0 l/m 5.2 km/h (1 Bft) SO 10.3 C 16.1 C
15.07.2004 07:00 16.4 C 67 % 1019.9 hPa 0.0 l/m 1.6 km/h (1 Bft) SO 10.2 C 16.4 C
15.07.2004 08:00 17.8 C 64 % 1019.9 hPa 0.0 l/m 2.8 km/h (1 Bft) O-SO 10.9 C 17.8 C
15.07.2004 09:00 19.5 C 56 % 1020.5 hPa 0.0 l/m 4.3 km/h (1 Bft) NW 10.4 C 19.5 C
15.07.2004 10:00 20.1 C 52 % 1020.5 hPa 0.0 l/m 12.6 km/h (3 Bft) W-NW 9.8 C 20.1 C
15.07.2004 11:00 21.7 C 51 % 1019.6 hPa 0.0 l/m 12.0 km/h (2 Bft) NW 11.1 C 21.7 C
15.07.2004 12:00 22.4 C 48 % 1019.1 hPa 0.0 l/m 16.0 km/h (3 Bft) NW 10.9 C 22.4 C
15.07.2004 13:00 23.3 C 46 % 1019.0 hPa 0.0 l/m 21.7 km/h (4 Bft) NW 10.9 C 23.3 C
15.07.2004 14:00 23.9 C 45 % 1018.5 hPa 0.0 l/m 21.0 km/h (4 Bft) NW 11.3 C 23.9 C
15.07.2004 15:00 25.2 C 44 % 1017.7 hPa 0.0 l/m 19.6 km/h (3 Bft) NW 12.1 C 25.2 C
15.07.2004 16:00 25.1 C 46 % 1017.7 hPa 0.0 l/m 16.9 km/h (3 Bft) NW 12.6 C 25.1 C
15.07.2004 17:00 25.8 C 47 % 1017.5 hPa 0.0 l/m 16.3 km/h (3 Bft) NW 13.5 C 25.8 C
15.07.2004 18:00 24.9 C 51 % 1016.8 hPa 0.0 l/m 25.8 km/h (4 Bft) NW 14.1 C 24.9 C
15.07.2004 19:00 23.5 C 55 % 1016.9 hPa 0.0 l/m 18.3 km/h (3 Bft) NW 13.8 C 23.5 C
15.07.2004 20:00 22.0 C 63 % 1017.7 hPa 0.0 l/m 17.8 km/h (3 Bft) NW 14.6 C 22.0 C
15.07.2004 21:00 21.0 C 66 % 1018.3 hPa 0.0 l/m 5.1 km/h (1 Bft) NW 14.5 C 21.0 C
15.07.2004 22:00 20.5 C 70 % 1018.3 hPa 0.0 l/m 0.2 km/h (0 Bft) N 14.7 C 20.5 C
15.07.2004 23:00 20.0 C 72 % 1018.4 hPa 0.0 l/m 0.0 km/h (0 Bft) N 14.7 C 20.0 C
16.07.2004 00:00 19.1 C 77 % 1018.5 hPa 0.0 l/m 0.0 km/h (0 Bft) N 14.9 C 19.1 C
16.07.2004 01:00 17.7 C 84 % 1018.7 hPa 0.0 l/m 0.0 km/h (0 Bft) N 15.0 C 17.7 C
16.07.2004 02:00 15.8 C 90 % 1018.9 hPa 0.0 l/m 0.0 km/h (0 Bft) N 14.2 C 15.8 C
16.07.2004 03:00 15.0 C 96 % 1018.1 hPa 0.0 l/m 0.0 km/h (0 Bft) N 14.3 C 15.0 C
16.07.2004 04:00 14.3 C 98 % 1018.1 hPa 0.0 l/m 0.0 km/h (0 Bft) N 13.9 C 14.3 C
16.07.2004 05:00 13.7 C 99 % 1018.2 hPa 0.0 l/m 0.0 km/h (0 Bft) N 13.6 C 13.7 C
16.07.2004 06:00 14.0 C 99 % 1018.1 hPa 0.0 l/m 0.0 km/h (0 Bft) N 13.8 C 14.0 C
16.07.2004 07:00 15.4 C 96 % 1018.0 hPa 0.0 l/m 0.0 km/h (0 Bft) N 14.8 C 15.4 C
16.07.2004 08:00 17.0 C 86 % 1017.7 hPa 0.0 l/m 0.0 km/h (0 Bft) N 14.5 C 17.0 C
16.07.2004 09:00 19.2 C 73 % 1017.5 hPa 0.0 l/m 0.0 km/h (0 Bft) N 14.3 C 19.2 C
16.07.2004 10:00 21.7 C 63 % 1017.1 hPa 0.0 l/m 0.5 km/h (0 Bft) W-NW 14.3 C 21.7 C
16.07.2004 11:00 23.5 C 56 % 1016.9 hPa 0.0 l/m 1.2 km/h (1 Bft) NW 14.2 C 23.5 C
16.07.2004 12:00 25.2 C 48 % 1016.7 hPa 0.0 l/m 1.5 km/h (1 Bft) W-NW 13.3 C 25.2 C
16.07.2004 13:00 26.7 C 42 % 1015.6 hPa 0.0 l/m 0.9 km/h (0 Bft) N-NO 12.6 C 26.7 C
16.07.2004 14:00 28.2 C 39 % 1015.3 hPa 0.0 l/m 0.2 km/h (0 Bft) W-NW 12.9 C 28.2 C
16.07.2004 15:00 28.7 C 39 % 1014.7 hPa 0.0 l/m 1.1 km/h (0 Bft) NW 13.5 C 28.7 C
16.07.2004 16:00 29.1 C 40 % 1014.1 hPa 0.0 l/m 2.7 km/h (1 Bft) NW 14.2 C 29.1 C
16.07.2004 17:00 29.3 C 40 % 1014.1 hPa 0.0 l/m 1.4 km/h (1 Bft) W-NW 14.3 C 29.3 C
16.07.2004 18:00 29.0 C 41 % 1013.9 hPa 0.0 l/m 5.7 km/h (1 Bft) O-SO 14.2 C 29.0 C
16.07.2004 19:00 28.3 C 44 % 1013.2 hPa 0.0 l/m 3.0 km/h (1 Bft) O-SO 14.6 C 28.3 C
16.07.2004 20:00 26.3 C 53 % 1013.8 hPa 0.0 l/m 7.2 km/h (2 Bft) O-SO 15.9 C 26.3 C
16.07.2004 21:00 23.6 C 62 % 1014.8 hPa 0.0 l/m 3.7 km/h (1 Bft) O-SO 15.7 C 23.6 C
16.07.2004 22:00 20.7 C 75 % 1015.9 hPa 0.0 l/m 4.0 km/h (1 Bft) O-SO 16.1 C 20.7 C
16.07.2004 23:00 19.4 C 82 % 1016.4 hPa 0.0 l/m 1.3 km/h (1 Bft) O-SO 16.2 C 19.4 C
17.07.2004 00:00 18.2 C 89 % 1016.6 hPa 0.0 l/m 1.1 km/h (0 Bft) O-SO 16.4 C 18.2 C
17.07.2004 01:00 17.9 C 90 % 1016.6 hPa 0.0 l/m 1.8 km/h (1 Bft) O-SO 16.3 C 17.9 C
17.07.2004 02:00 17.7 C 93 % 1017.0 hPa 0.0 l/m 8.7 km/h (2 Bft) O-SO 16.5 C 17.7 C
17.07.2004 03:00 17.4 C 93 % 1016.7 hPa 0.0 l/m 0.0 km/h (0 Bft) N 16.2 C 17.4 C
17.07.2004 04:00 17.1 C 97 % 1016.7 hPa 0.0 l/m 4.7 km/h (1 Bft) O-SO 16.6 C 17.1 C
17.07.2004 05:00 17.1 C 93 % 1017.0 hPa 0.0 l/m 2.4 km/h (1 Bft) O-SO 16.0 C 17.1 C
17.07.2004 06:00 17.4 C 95 % 1017.7 hPa 0.0 l/m 2.1 km/h (1 Bft) NO 16.6 C 17.4 C
17.07.2004 07:00 19.0 C 82 % 1017.5 hPa 0.0 l/m 1.1 km/h (1 Bft) O-SO 15.8 C 19.0 C
17.07.2004 08:00 20.0 C 75 % 1017.4 hPa 0.0 l/m 1.5 km/h (1 Bft) SO 15.4 C 20.0 C
17.07.2004 09:00 21.1 C 69 % 1017.2 hPa 0.0 l/m 2.5 km/h (1 Bft) O-SO 15.2 C 21.1 C
17.07.2004 10:00 22.8 C 61 % 1017.0 hPa 0.0 l/m 2.8 km/h (1 Bft) SO 14.8 C 22.8 C
17.07.2004 11:00 23.2 C 61 % 1016.9 hPa 0.0 l/m 2.0 km/h (1 Bft) W-NW 15.1 C 23.2 C
17.07.2004 12:00 25.1 C 50 % 1016.7 hPa 0.0 l/m 2.4 km/h (1 Bft) NW 14.0 C 25.1 C
17.07.2004 13:00 27.4 C 41 % 1015.5 hPa 0.0 l/m 4.2 km/h (1 Bft) W-NW 12.8 C 27.4 C
17.07.2004 14:00 29.6 C 38 % 1014.3 hPa 0.0 l/m 4.2 km/h (1 Bft) O-SO 13.9 C 29.6 C
17.07.2004 15:00 30.8 C 34 % 1013.9 hPa 0.0 l/m 6.6 km/h (2 Bft) SO 13.2 C 30.8 C
17.07.2004 16:00 30.7 C 34 % 1013.0 hPa 0.0 l/m 2.1 km/h (1 Bft) O-SO 13.1 C 30.7 C
17.07.2004 17:00 30.5 C 35 % 1012.9 hPa 0.0 l/m 0.6 km/h (0 Bft) W-NW 13.1 C 30.5 C
17.07.2004 18:00 28.1 C 43 % 1013.2 hPa 0.0 l/m 8.0 km/h (2 Bft) NW 14.3 C 28.1 C
17.07.2004 19:00 26.7 C 46 % 1014.1 hPa 0.0 l/m 3.2 km/h (1 Bft) NO 14.2 C 26.7 C
17.07.2004 20:00 21.9 C 62 % 1016.3 hPa 0.0 l/m 11.9 km/h (2 Bft) SO 14.3 C 21.9 C
17.07.2004 21:00 19.4 C 79 % 1018.2 hPa 0.9 l/m 17.3 km/h (3 Bft) O-SO 15.5 C 19.4 C
17.07.2004 22:00 18.4 C 91 % 1018.4 hPa 0.0 l/m 1.3 km/h (1 Bft) O-NO 16.9 C 18.4 C
17.07.2004 23:00 17.9 C 91 % 1019.7 hPa 0.0 l/m 2.4 km/h (1 Bft) O-SO 16.4 C 17.9 C
18.07.2004 00:00 17.0 C 94 % 1019.7 hPa 0.0 l/m 0.9 km/h (0 Bft) O-SO 16.1 C 17.0 C
18.07.2004 01:00 16.2 C 98 % 1019.4 hPa 0.0 l/m 5.7 km/h (1 Bft) O-SO 15.8 C 16.2 C
18.07.2004 02:00 15.9 C 99 % 1019.8 hPa 0.0 l/m 2.6 km/h (1 Bft) O-SO 15.8 C 15.9 C
18.07.2004 03:00 15.1 C 99 % 1020.0 hPa 0.0 l/m 2.6 km/h (1 Bft) O-SO 15.0 C 15.1 C
18.07.2004 04:00 14.8 C 100 % 1019.8 hPa 0.0 l/m 2.5 km/h (1 Bft) O-SO 14.8 C 14.8 C
18.07.2004 05:00 14.5 C 100 % 1019.7 hPa 0.0 l/m 2.0 km/h (1 Bft) O 14.5 C 14.5 C
18.07.2004 06:00 15.1 C 100 % 1020.0 hPa 0.0 l/m 5.5 km/h (1 Bft) O-SO 15.0 C 15.1 C
18.07.2004 07:00 16.5 C 97 % 1019.9 hPa 0.0 l/m 0.0 km/h (0 Bft) N 16.0 C 16.5 C
18.07.2004 08:00 17.7 C 91 % 1019.6 hPa 0.0 l/m 0.0 km/h (0 Bft) N 16.1 C 17.7 C
18.07.2004 09:00 19.2 C 81 % 1018.5 hPa 0.0 l/m 0.1 km/h (0 Bft) N 15.8 C 19.2 C
18.07.2004 10:00 21.3 C 71 % 1018.2 hPa 0.0 l/m 1.5 km/h (1 Bft) W-NW 15.7 C 21.3 C
18.07.2004 11:00 23.5 C 60 % 1017.9 hPa 0.0 l/m 1.4 km/h (1 Bft) W-NW 15.3 C 23.5 C
18.07.2004 12:00 26.1 C 51 % 1016.6 hPa 0.0 l/m 2.3 km/h (1 Bft) O-SO 15.0 C 26.1 C
18.07.2004 13:00 28.0 C 37 % 1016.1 hPa 0.0 l/m 3.9 km/h (1 Bft) NW 11.9 C 28.0 C
18.07.2004 14:00 29.1 C 37 % 1015.2 hPa 0.0 l/m 4.1 km/h (1 Bft) W-NW 12.7 C 29.1 C
18.07.2004 15:00 30.2 C 37 % 1015.0 hPa 0.0 l/m 3.6 km/h (1 Bft) O-SO 13.7 C 30.2 C
18.07.2004 16:00 28.8 C 38 % 1015.2 hPa 0.0 l/m 10.9 km/h (2 Bft) NW 13.0 C 28.8 C
18.07.2004 17:00 26.3 C 39 % 1015.5 hPa 0.0 l/m 19.3 km/h (3 Bft) NW 11.2 C 26.3 C
18.07.2004 18:00 24.9 C 41 % 1015.7 hPa 0.0 l/m 31.2 km/h (5 Bft) NW 10.7 C 24.9 C
18.07.2004 19:00 23.3 C 46 % 1016.9 hPa 0.0 l/m 24.3 km/h (4 Bft) NW 10.9 C 23.3 C
18.07.2004 20:00 20.0 C 69 % 1018.0 hPa 3.4 l/m 7.8 km/h (2 Bft) O-SO 13.8 C 20.0 C
18.07.2004 21:00 17.8 C 93 % 1018.8 hPa 0.0 l/m 5.2 km/h (1 Bft) O-SO 16.7 C 17.8 C
18.07.2004 22:00 17.7 C 91 % 1019.7 hPa 0.0 l/m 6.8 km/h (2 Bft) O-SO 16.2 C 17.7 C
18.07.2004 23:00 17.9 C 84 % 1020.3 hPa 0.0 l/m 3.6 km/h (1 Bft) SO 15.3 C 17.9 C
Min-Datum _ 14.07.04 14.07.04 17.07.04 - 12.07.04 - 14.07.04 14.07.04
_ Min-Zeit 02:24 16:21 16:08 - 00:02 - 17:03 02:24
Minimum _ 10.4 C 30 % 1012.8 hPa - 0.0 km/h (0 Bft) - 4.6 C 10.4 C
Max-Datum _ 17.07.04 14.07.04 14.07.04 18.07.04 18.07.04 - 17.07.04 17.07.04
_ Max-Zeit 16:05 02:54 07:18 20:35 18:33 - 22:38 16:05
Maximum _ 31.9 C 100 % 1022.6 hPa 3.4 l/m 44.5 km/h
NW (6 Bft)
- 17.2 C 31.9 C
Durchschnitt _ 18.6 C 70 % 1017.5 hPa #7.8 l/m 6.1 km/h (2 Bft) NW 12.2 C 18.6 C

Durchschnitt Minimum Temp.17.8 C
Durchschnitt Maximum Temp.19.5 C
© Kaiko 2004